Main page
METAR-TAF:

METAR-TAF

Airports :

Limoges – Bellegarde Airport

Limoges, France

latitude: 45-52N, longitude: 001-11E, elevation: 396 m

Current weather observation

The report was made 12 minutes ago, at 23:00 UTC
Wind 10 kt from the West/Southwest
Temperature 10°C
Humidity 100%
Pressure 1018 hPa
Visibility: 0350 m
fog

METAR: LFBL 272300Z AUTO 25010KT 0350 R21/0550N R03/0400N FG VV/// 10/10 Q1018 TEMPO 3000

Time: 00:12 (23:12 UTC)

Forecast

The report was made 6 hours and 12 minutes ago, at 17:00 UTC
Forecast valid from 27 at 18 UTC to 28 at 18 UTC
Wind 5 kt from the South/Southwest
Visibility: 0300 m
light drizzle, rain, fog
Temporary
from 27 at 18 UTC to 27 at 21 UTC
Visibility: 1200 m
Overcast at a height of 200 ft
rain
Becoming
from 27 at 22 UTC to 27 at 24 UTC
Wind 10 kt from the West
Temporary
from 28 at 00 UTC to 28 at 18 UTC
Visibility: 3000 m
Overcast at a height of 300 ft

TAF: LFBL 271700Z 2718/2818 20005KT 0300 -DZRA FG VV/// TEMPO 2718/2721 1200 RA OVC002 BECMG 2722/2724 26010KT TEMPO 2800/2818 3000 OVC003

Weather observations and forecasts of more than 4000 airports (METAR and TAF reports).

The available stations are represented by yellow and red dots on the map.

Hover mouse over dot to see the name of the station.

Then click to see weather observations and forecasts.

To change the map : click on the green buttons with a black cross to zoom in, on the green button with a dash to zoom out, or on the green arrows for adjacent maps.


METAR-TAF: